CYYR

Goose Bay Airport

Goose Bay, Canada
METAR CYYR 241100Z 29016G21KT 15SM FEW038 FEW140 OVC240 03/M05 A3011 RMK SC1AC2CI6 SLP200
Observed Flight Rules
Sep-24 @ 11:00 UTC (33 minutes ago) Visual Flight Rules
Wind Visibility Clouds
290° at 16 knots
 Gusting to 21 knots
15 miles
  • Few at 3,800' AGL
  • Few at 14,000' AGL
  • Overcast at 24,000' AGL
Temperatures Readings
Current 3°C / 37°F
Dewpoint -5°C / 23°F
Humidity 56%
Altimeter 30.11" Hg
Pressure 1020 hPa
Elevation 49
METAR CYYR 241100Z 29016G21KT 15SM FEW038 FEW140 OVC240 03/M05 A3011 RMK SC1AC2CI6 SLP200
Observed Flight Rules
Sep-24 @ 11:00 UTC
(33 minutes ago)
VFR
Wind Visibility
290° at 16 knots
 Gusting to 21 knots
15 miles
Clouds
  • Few at 3,800' AGL
  • Few at 14,000' AGL
  • Overcast at 24,000' AGL
Temperature Dewpoint
3°C / 37°F -5°C / 23°F
Humidity Altimeter Pressure
56% 30.11" Hg 1020 hPa